createdAt,value
2018-09-14T00:00:14.635Z,11.90
2018-09-14T00:02:44.958Z,11.90
2018-09-14T00:05:27.316Z,11.90
2018-09-14T00:07:56.419Z,11.90
2018-09-14T00:10:25.581Z,11.90
2018-09-14T00:12:55.250Z,11.90
2018-09-14T00:15:25.012Z,11.80
2018-09-14T00:17:59.323Z,11.80
2018-09-14T00:20:29.197Z,11.80
2018-09-14T00:22:58.238Z,11.70
2018-09-14T00:25:27.369Z,11.70
2018-09-14T00:27:57.834Z,11.60
2018-09-14T00:30:30.398Z,11.60
2018-09-14T00:33:11.930Z,11.70
2018-09-14T00:35:41.114Z,11.70
2018-09-14T00:38:10.362Z,11.60
2018-09-14T00:40:49.996Z,11.60
2018-09-14T00:43:21.314Z,11.60
2018-09-14T00:45:50.683Z,11.60
2018-09-14T00:48:21.433Z,11.70
2018-09-14T00:50:51.289Z,11.70
2018-09-14T00:53:20.585Z,11.80
2018-09-14T00:55:49.814Z,11.80
2018-09-14T00:58:29.508Z,11.80
2018-09-14T01:00:58.703Z,11.80
2018-09-14T01:03:28.247Z,11.80
2018-09-14T01:06:08.839Z,11.70
2018-09-14T01:08:41.302Z,11.70
2018-09-14T01:11:20.836Z,11.70
2018-09-14T01:13:50.852Z,11.70
2018-09-14T01:16:21.816Z,11.80
2018-09-14T01:18:51.316Z,11.80
2018-09-14T01:21:25.446Z,11.80
2018-09-14T01:23:56.147Z,11.80
2018-09-14T01:26:25.611Z,11.80
2018-09-14T01:28:54.835Z,11.80
2018-09-14T01:31:24.935Z,11.80
2018-09-14T01:34:00.129Z,11.70
2018-09-14T01:36:36.518Z,11.60
2018-09-14T01:39:27.459Z,11.50
2018-09-14T01:41:57.559Z,11.50
2018-09-14T01:44:38.031Z,11.60
2018-09-14T01:47:09.924Z,11.60
2018-09-14T01:49:39.724Z,11.60
2018-09-14T01:52:09.515Z,11.60
2018-09-14T01:54:48.462Z,11.60
2018-09-14T01:57:21.858Z,11.60
2018-09-14T01:59:52.117Z,11.50
2018-09-14T02:02:23.033Z,11.50
2018-09-14T02:04:54.726Z,11.60
2018-09-14T02:07:24.798Z,11.50
2018-09-14T02:09:56.312Z,11.40
2018-09-14T02:12:25.509Z,11.30
2018-09-14T02:14:54.939Z,11.30
2018-09-14T02:17:26.027Z,11.30
2018-09-14T02:19:56.147Z,11.20
2018-09-14T02:22:25.398Z,11.20
2018-09-14T02:24:56.468Z,11.10
2018-09-14T02:27:25.855Z,11.10
2018-09-14T02:29:55.120Z,11.10
2018-09-14T02:32:25.284Z,11.10
2018-09-14T02:34:54.517Z,11.30
2018-09-14T02:37:35.350Z,11.30
2018-09-14T02:40:17.234Z,11.30
2018-09-14T02:42:47.494Z,11.30
2018-09-14T02:45:16.725Z,11.30
2018-09-14T02:47:45.862Z,11.30
2018-09-14T02:50:14.889Z,11.20
2018-09-14T02:52:44.706Z,11.10
2018-09-14T02:55:14.042Z,11.10
2018-09-14T02:57:45.249Z,11.10
2018-09-14T03:00:14.476Z,11.00
2018-09-14T03:02:54.335Z,10.90
2018-09-14T03:05:23.696Z,10.80
2018-09-14T03:07:54.069Z,10.80
2018-09-14T03:10:23.114Z,10.70
2018-09-14T03:12:52.558Z,10.70
2018-09-14T03:15:21.596Z,10.60
2018-09-14T03:17:50.882Z,10.60
2018-09-14T03:20:21.312Z,10.50
2018-09-14T03:22:52.238Z,10.50
2018-09-14T03:25:21.522Z,10.50
2018-09-14T03:27:55.356Z,10.40
2018-09-14T03:30:25.913Z,10.30
2018-09-14T03:32:59.107Z,10.30
2018-09-14T03:35:31.164Z,10.30
2018-09-14T03:38:00.317Z,10.30
2018-09-14T03:40:30.362Z,10.20
2018-09-14T03:43:05.650Z,10.30
2018-09-14T03:45:34.989Z,10.20
2018-09-14T03:48:10.982Z,10.20
2018-09-14T03:50:46.075Z,10.10
2018-09-14T03:53:15.071Z,10.00
2018-09-14T03:55:44.251Z,10.10
2018-09-14T03:58:13.307Z,10.10
2018-09-14T04:00:42.503Z,10.00
2018-09-14T04:03:16.960Z,10.00
2018-09-14T04:05:47.015Z,9.90
2018-09-14T04:08:22.668Z,9.80
2018-09-14T04:10:53.273Z,10.00
2018-09-14T04:13:22.497Z,10.00
2018-09-14T04:15:56.786Z,10.00
2018-09-14T04:18:25.896Z,9.90
2018-09-14T04:20:55.195Z,10.00
2018-09-14T04:23:25.047Z,9.90
2018-09-14T04:25:55.503Z,9.90
2018-09-14T04:28:29.628Z,9.90
2018-09-14T04:30:59.850Z,9.80
2018-09-14T04:33:39.297Z,9.80
2018-09-14T04:36:08.494Z,9.80
2018-09-14T04:38:37.652Z,9.80
2018-09-14T04:41:08.681Z,9.80
2018-09-14T04:43:57.078Z,9.80
2018-09-14T04:46:26.289Z,9.90
2018-09-14T04:49:05.279Z,10.00
2018-09-14T04:51:34.595Z,10.10
2018-09-14T04:54:03.604Z,10.30
2018-09-14T04:57:03.213Z,10.40
2018-09-14T04:59:34.923Z,10.50
2018-09-14T05:02:20.108Z,10.60
2018-09-14T05:04:54.211Z,10.60
2018-09-14T05:07:25.900Z,10.70
2018-09-14T05:13:05.233Z,10.80
2018-09-14T05:15:34.585Z,10.80
2018-09-14T05:18:05.498Z,10.90
2018-09-14T05:20:34.730Z,11.00
2018-09-14T05:23:04.152Z,11.00
2018-09-14T05:25:35.691Z,11.10
2018-09-14T05:28:05.287Z,11.20
2018-09-14T05:30:34.662Z,11.20
2018-09-14T05:33:03.977Z,11.20
2018-09-14T05:35:36.039Z,11.20
2018-09-14T05:38:09.262Z,11.30
2018-09-14T05:40:38.393Z,11.30
2018-09-14T05:43:08.550Z,11.30
2018-09-14T05:45:49.628Z,11.30
2018-09-14T05:48:33.896Z,11.30
2018-09-14T05:51:09.473Z,11.30
2018-09-14T05:53:43.000Z,11.30
2018-09-14T05:56:12.449Z,11.30
2018-09-14T05:58:41.789Z,11.40
2018-09-14T06:01:20.969Z,11.40
2018-09-14T06:03:50.053Z,11.40
2018-09-14T06:06:30.515Z,11.40
2018-09-14T06:09:01.254Z,11.40
2018-09-14T06:11:31.495Z,11.40
2018-09-14T06:14:25.477Z,11.50
2018-09-14T06:17:01.495Z,11.50
2018-09-14T06:19:39.453Z,11.60
2018-09-14T06:22:09.625Z,11.60
2018-09-14T06:24:40.056Z,11.70
2018-09-14T06:27:09.566Z,11.80
2018-09-14T06:29:39.647Z,11.80
2018-09-14T06:32:08.929Z,11.80
2018-09-14T06:34:40.780Z,11.80
2018-09-14T06:37:22.647Z,11.80
2018-09-14T06:39:56.453Z,11.80
2018-09-14T06:42:25.836Z,11.90
2018-09-14T06:44:59.930Z,11.90
2018-09-14T06:47:29.579Z,12.00
2018-09-14T06:50:00.105Z,12.00
2018-09-14T06:52:49.624Z,12.00
2018-09-14T06:55:18.933Z,12.00
2018-09-14T06:57:54.433Z,12.10
2018-09-14T07:00:24.512Z,12.20
2018-09-14T07:02:54.731Z,12.30
2018-09-14T07:05:24.002Z,12.30
2018-09-14T07:07:54.054Z,12.30
2018-09-14T07:10:23.236Z,12.30
2018-09-14T07:12:52.345Z,12.50
2018-09-14T07:15:24.291Z,12.50
2018-09-14T07:17:53.729Z,12.60
2018-09-14T07:20:22.806Z,12.70
2018-09-14T07:22:52.201Z,12.70
2018-09-14T07:25:22.234Z,12.80
2018-09-14T07:27:51.302Z,12.90
2018-09-14T07:30:20.751Z,13.00
2018-09-14T07:32:50.531Z,13.00
2018-09-14T07:35:21.166Z,13.10
2018-09-14T07:37:51.238Z,13.10
2018-09-14T07:40:20.696Z,13.20
2018-09-14T07:42:50.791Z,13.30
2018-09-14T07:45:21.514Z,13.30
2018-09-14T07:47:51.043Z,13.40
2018-09-14T07:50:20.821Z,13.50
2018-09-14T07:55:28.922Z,13.60
2018-09-14T07:58:05.121Z,13.70
2018-09-14T08:00:34.246Z,13.70
2018-09-14T08:03:04.715Z,13.80
2018-09-14T08:05:35.831Z,13.90
2018-09-14T08:08:06.066Z,13.90
2018-09-14T08:10:36.941Z,14.00
2018-09-14T08:13:07.987Z,14.10
2018-09-14T08:15:37.162Z,14.20
2018-09-14T08:18:10.622Z,14.30
2018-09-14T08:20:44.487Z,14.30
2018-09-14T08:23:13.627Z,14.40
2018-09-14T08:25:43.835Z,14.50
2018-09-14T08:28:13.718Z,14.50
2018-09-14T08:30:43.820Z,14.60
2018-09-14T08:33:13.313Z,14.60
2018-09-14T08:35:47.486Z,14.70
2018-09-14T08:38:17.822Z,14.80
2018-09-14T08:40:47.002Z,14.90
2018-09-14T08:43:17.656Z,14.90
2018-09-14T08:45:48.119Z,15.00
2018-09-14T08:48:23.289Z,15.00
2018-09-14T08:50:52.630Z,15.00
2018-09-14T08:53:23.087Z,15.10
2018-09-14T08:55:53.302Z,15.20
2018-09-14T08:58:23.207Z,15.20
2018-09-14T09:00:52.385Z,15.20
2018-09-14T09:03:22.278Z,15.30
2018-09-14T09:05:51.484Z,15.40
2018-09-14T09:08:21.184Z,15.40
2018-09-14T09:10:51.049Z,15.50
2018-09-14T09:13:20.282Z,15.50
2018-09-14T09:15:49.637Z,15.60
2018-09-14T09:18:19.861Z,15.70
2018-09-14T09:20:49.955Z,15.70
2018-09-14T09:23:19.286Z,15.70
2018-09-14T09:25:49.841Z,15.80
2018-09-14T09:28:19.402Z,15.80
2018-09-14T09:30:49.078Z,15.90
2018-09-14T09:33:18.668Z,16.00
2018-09-14T09:35:48.220Z,16.00
2018-09-14T09:38:18.683Z,16.10
2018-09-14T09:40:48.100Z,16.20
2018-09-14T09:43:17.493Z,16.20
2018-09-14T09:45:47.880Z,16.20
2018-09-14T09:48:21.956Z,16.20
2018-09-14T09:50:51.672Z,16.30
2018-09-14T09:53:20.763Z,16.40
2018-09-14T09:55:50.335Z,16.50
2018-09-14T09:58:24.494Z,16.60
2018-09-14T10:00:58.960Z,16.60
2018-09-14T10:03:33.484Z,16.60
2018-09-14T10:06:08.078Z,16.70
2018-09-14T10:08:37.327Z,16.80
2018-09-14T10:11:06.666Z,16.80
2018-09-14T10:13:35.957Z,16.80
2018-09-14T10:16:05.250Z,16.80
2018-09-14T10:18:34.511Z,16.90
2018-09-14T10:21:05.051Z,16.90
2018-09-14T10:23:34.262Z,16.80
2018-09-14T10:26:04.420Z,16.80
2018-09-14T10:28:33.609Z,16.90
2018-09-14T10:31:03.020Z,17.00
2018-09-14T10:33:33.202Z,17.00
2018-09-14T10:36:04.198Z,17.10
2018-09-14T10:38:35.587Z,17.10
2018-09-14T10:41:04.786Z,17.10
2018-09-14T10:43:33.898Z,17.20
2018-09-14T10:46:03.585Z,17.20
2018-09-14T10:48:32.897Z,17.30
2018-09-14T10:51:02.257Z,17.40
2018-09-14T10:53:31.772Z,17.50
2018-09-14T10:56:00.922Z,17.50
2018-09-14T10:58:35.534Z,17.70
2018-09-14T11:01:04.876Z,17.80
2018-09-14T11:03:34.223Z,17.90
2018-09-14T11:06:03.737Z,17.90
2018-09-14T11:08:32.913Z,17.90
2018-09-14T11:11:04.631Z,18.00
2018-09-14T11:13:34.619Z,18.10
2018-09-14T11:16:03.889Z,18.20
2018-09-14T11:18:33.778Z,18.40
2018-09-14T11:21:03.183Z,18.50
2018-09-14T11:23:33.185Z,18.70
2018-09-14T11:26:02.296Z,18.80
2018-09-14T11:28:32.453Z,18.90
2018-09-14T11:31:01.632Z,18.90
2018-09-14T11:33:30.750Z,18.80
2018-09-14T11:36:00.304Z,18.60
2018-09-14T11:38:32.054Z,18.70
2018-09-14T11:41:07.296Z,18.60
2018-09-14T11:43:37.191Z,18.60
2018-09-14T11:46:06.618Z,18.90
2018-09-14T11:48:36.939Z,19.00
2018-09-14T11:51:06.526Z,19.00
2018-09-14T11:53:35.861Z,19.00
2018-09-14T11:56:05.040Z,19.20
2018-09-14T11:58:34.137Z,19.20
2018-09-14T12:01:03.512Z,19.20
2018-09-14T12:03:32.793Z,19.20
2018-09-14T12:06:02.821Z,19.30
2018-09-14T12:08:32.629Z,19.30
2018-09-14T12:11:02.272Z,19.20
2018-09-14T12:13:33.748Z,19.40
2018-09-14T12:16:04.476Z,19.50
2018-09-14T12:18:33.858Z,19.70
2018-09-14T12:21:03.592Z,19.80
2018-09-14T12:23:32.840Z,19.80
2018-09-14T12:26:02.304Z,19.80
2018-09-14T12:28:32.241Z,19.80
2018-09-14T12:31:02.458Z,20.10
2018-09-14T12:33:32.791Z,20.20
2018-09-14T12:36:02.116Z,20.40
2018-09-14T12:38:32.342Z,20.50
2018-09-14T12:41:02.023Z,20.30
2018-09-14T12:43:31.358Z,20.00
2018-09-14T12:46:00.833Z,19.80
2018-09-14T12:48:31.016Z,19.90
2018-09-14T12:51:01.603Z,20.10
2018-09-14T12:53:31.083Z,20.40
2018-09-14T12:56:01.691Z,20.60
2018-09-14T12:58:31.204Z,20.50
2018-09-14T13:01:00.462Z,20.30
2018-09-14T13:03:29.809Z,20.20
2018-09-14T13:05:58.934Z,20.00
2018-09-14T13:08:28.150Z,19.90
2018-09-14T13:13:39.130Z,19.70
2018-09-14T13:16:08.500Z,19.50
2018-09-14T13:18:38.936Z,19.50
2018-09-14T13:21:08.214Z,19.60
2018-09-14T13:23:37.468Z,19.70
2018-09-14T13:26:06.831Z,19.60
2018-09-14T13:28:36.361Z,19.40
2018-09-14T13:31:05.434Z,19.30
2018-09-14T13:33:34.498Z,19.30
2018-09-14T13:36:03.843Z,19.40
2018-09-14T13:38:33.295Z,19.50
2018-09-14T13:41:02.505Z,19.60
2018-09-14T13:43:31.905Z,19.80
2018-09-14T13:46:01.055Z,19.90
2018-09-14T13:48:30.038Z,20.00
2018-09-14T13:50:59.223Z,19.90
2018-09-14T13:53:31.029Z,20.00
2018-09-14T13:56:00.365Z,20.10
2018-09-14T13:58:29.956Z,20.10
2018-09-14T14:02:20.122Z,20.10
2018-09-14T14:04:51.708Z,20.10
2018-09-14T14:07:22.363Z,19.90
2018-09-14T14:09:52.667Z,19.70
2018-09-14T14:12:22.781Z,19.60
2018-09-14T14:14:52.150Z,19.50
2018-09-14T15:10:32.151Z,19.70
2018-09-14T15:13:01.641Z,19.30
2018-09-14T15:15:35.940Z,19.30
2018-09-14T15:18:05.241Z,19.30
2018-09-14T15:20:35.958Z,19.30
2018-09-14T15:23:05.888Z,19.20
2018-09-14T15:25:35.069Z,19.10
2018-09-14T15:28:06.087Z,19.10
2018-09-14T15:30:35.544Z,19.10
2018-09-14T15:33:05.914Z,19.20
2018-09-14T15:35:35.837Z,19.30
2018-09-14T15:38:09.070Z,19.40
2018-09-14T15:40:39.474Z,19.40
2018-09-14T15:43:10.333Z,19.40
2018-09-14T15:45:40.480Z,19.40
2018-09-14T15:48:09.661Z,19.30
2018-09-14T15:50:38.922Z,19.30
2018-09-14T15:53:08.385Z,19.20
2018-09-14T15:55:37.982Z,19.10
2018-09-14T15:58:07.320Z,19.10
2018-09-14T16:00:38.585Z,19.10
2018-09-14T16:03:08.144Z,19.00
2018-09-14T16:05:37.238Z,19.00
2018-09-14T16:08:06.528Z,19.00
2018-09-14T16:10:39.443Z,18.90
2018-09-14T16:13:26.645Z,18.90
2018-09-14T16:16:20.576Z,18.90
2018-09-14T16:18:57.262Z,18.80
2018-09-14T16:21:41.436Z,18.70
2018-09-14T16:24:11.468Z,18.70
2018-09-14T16:26:41.640Z,18.70
2018-09-14T16:29:11.015Z,18.60
2018-09-14T16:31:40.123Z,18.60
2018-09-14T16:34:09.108Z,18.50
2018-09-14T16:36:38.290Z,18.50
2018-09-14T16:39:09.259Z,18.60
2018-09-14T16:41:38.627Z,18.60
2018-09-14T16:44:08.010Z,18.60
2018-09-14T16:46:37.630Z,18.60
2018-09-14T16:49:07.255Z,18.60
2018-09-14T16:51:36.371Z,18.50
2018-09-14T16:54:05.398Z,18.40
2018-09-14T16:56:34.556Z,18.40
2018-09-14T16:59:03.571Z,18.40
2018-09-14T17:01:32.793Z,18.30
2018-09-14T17:04:02.833Z,18.30
2018-09-14T17:06:36.396Z,18.30
2018-09-14T17:09:08.626Z,18.20
2018-09-14T17:11:41.642Z,18.10
2018-09-14T17:14:10.896Z,18.10
2018-09-14T17:16:39.996Z,18.00
2018-09-14T17:19:09.081Z,17.90
2018-09-14T17:21:38.216Z,17.90
2018-09-14T17:24:07.299Z,17.80
2018-09-14T17:26:36.986Z,17.70
2018-09-14T17:29:05.967Z,17.70
2018-09-14T17:31:35.278Z,17.60
2018-09-14T17:34:05.577Z,17.50
2018-09-14T17:36:35.175Z,17.50
2018-09-14T17:39:07.554Z,17.40
2018-09-14T17:41:37.616Z,17.30
2018-09-14T17:44:06.929Z,17.30
2018-09-14T17:46:36.030Z,17.30
2018-09-14T17:49:05.276Z,17.20
2018-09-14T17:51:34.362Z,17.20
2018-09-14T17:54:03.444Z,17.10
2018-09-14T17:56:32.539Z,17.10
2018-09-14T17:59:01.785Z,17.10
2018-09-14T18:01:30.858Z,17.10
2018-09-14T18:04:00.081Z,17.10
2018-09-14T18:06:29.323Z,17.10
2018-09-14T18:08:58.392Z,17.20
2018-09-14T18:11:27.408Z,17.30
2018-09-14T18:13:57.520Z,17.30
2018-09-14T18:16:26.790Z,17.30
2018-09-14T18:18:55.915Z,17.40
2018-09-14T18:21:24.958Z,17.40
2018-09-14T18:23:56.708Z,17.40
2018-09-14T18:26:25.913Z,17.40
2018-09-14T18:28:55.263Z,17.30
2018-09-14T18:31:24.411Z,17.30
2018-09-14T18:33:53.639Z,17.30
2018-09-14T18:36:22.867Z,17.30
2018-09-14T18:38:57.590Z,17.20
2018-09-14T18:41:28.245Z,17.00
2018-09-14T18:43:57.346Z,17.00
2018-09-14T18:46:26.717Z,17.00
2018-09-14T18:48:55.788Z,17.00
2018-09-14T18:51:24.813Z,17.00
2018-09-14T18:53:53.989Z,17.00
2018-09-14T18:56:23.183Z,17.00
2018-09-14T18:58:52.377Z,17.10
2018-09-14T19:01:21.529Z,17.10
2018-09-14T19:03:50.630Z,17.10
2018-09-14T19:06:21.444Z,17.00
2018-09-14T19:08:53.801Z,16.90
2018-09-14T19:11:23.408Z,16.80
2018-09-14T19:13:52.630Z,16.80
2018-09-14T19:16:21.896Z,16.80
2018-09-14T19:18:51.032Z,16.80
2018-09-14T19:21:20.125Z,16.70
2018-09-14T19:23:49.438Z,16.70
2018-09-14T19:26:18.524Z,16.70
2018-09-14T19:28:47.764Z,16.70
2018-09-14T19:31:16.840Z,16.60
2018-09-14T19:33:46.113Z,16.60
2018-09-14T19:36:16.846Z,16.50
2018-09-14T19:38:46.095Z,16.50
2018-09-14T19:41:16.625Z,16.50
2018-09-14T19:43:46.067Z,16.40
2018-09-14T19:46:15.122Z,16.40
2018-09-14T19:48:45.821Z,16.30
2018-09-14T19:51:14.959Z,16.30
2018-09-14T19:53:44.148Z,16.30
2018-09-14T19:56:13.403Z,16.40
2018-09-14T19:58:43.777Z,16.40
2018-09-14T21:44:45.590Z,16.10
2018-09-14T21:47:16.216Z,15.90
2018-09-14T21:49:45.679Z,15.90
2018-09-14T21:52:16.015Z,15.90
2018-09-14T21:54:46.138Z,16.00
2018-09-14T21:57:15.172Z,16.00
2018-09-14T21:59:44.552Z,16.00
2018-09-14T22:02:15.978Z,16.20
2018-09-14T22:04:44.999Z,16.30
2018-09-14T22:07:14.112Z,16.40
2018-09-14T22:09:43.309Z,16.40
2018-09-14T22:12:12.459Z,16.40
2018-09-14T22:14:41.678Z,16.40
2018-09-14T22:17:10.832Z,16.50
2018-09-14T22:19:40.204Z,16.40
2018-09-14T22:22:09.372Z,16.40
2018-09-14T22:24:38.628Z,16.30
2018-09-14T22:27:07.779Z,16.30
2018-09-14T22:29:36.827Z,16.20
2018-09-14T22:32:06.168Z,16.10
2018-09-14T22:34:35.350Z,15.90
2018-09-14T22:37:05.335Z,15.80
2018-09-14T22:39:35.253Z,15.70
2018-09-14T22:42:04.318Z,15.60
2018-09-14T22:44:33.419Z,15.50
2018-09-14T22:47:02.502Z,15.50
2018-09-14T22:50:06.844Z,15.40
2018-09-14T22:52:47.067Z,15.40
2018-09-14T22:55:16.310Z,15.40
2018-09-14T22:57:45.391Z,15.40
2018-09-14T23:01:17.637Z,15.40
2018-09-14T23:03:52.818Z,15.40
2018-09-14T23:06:25.936Z,15.40
2018-09-14T23:08:55.113Z,15.40
2018-09-14T23:11:41.555Z,15.40
2018-09-14T23:14:15.538Z,15.40
2018-09-14T23:16:44.749Z,15.40
2018-09-14T23:19:19.254Z,15.40
2018-09-14T23:21:50.721Z,15.40
2018-09-14T23:24:31.485Z,15.40
2018-09-14T23:27:00.798Z,15.50
2018-09-14T23:29:30.155Z,15.40
2018-09-14T23:31:59.427Z,15.40
2018-09-14T23:34:36.843Z,15.50
2018-09-14T23:37:06.803Z,15.50
2018-09-14T23:39:36.754Z,15.50
2018-09-14T23:42:07.167Z,15.40
2018-09-14T23:44:36.485Z,15.40
2018-09-14T23:47:08.110Z,15.40
2018-09-14T23:49:37.272Z,15.40
2018-09-14T23:52:06.389Z,15.40
2018-09-14T23:54:35.581Z,15.40
2018-09-14T23:57:04.771Z,15.40
2018-09-14T23:59:34.315Z,15.30
